Time;durP1;ratioP1;P1;durP2;ratioP2;P2;SDS_P1;SDS_P2;PMS_P1;PMS_P2;Temp;Humidity;BMP_temperature;BMP_pressure;BME280_temperature;BME280_humidity;BME280_pressure;Samples;Min_cycle;Max_cycle;Signal;HPM_P1;HPM_P2
2023/12/05 00:01:50;;;;;;;22.15;16.90;;;;;;;1.41;100.00;99871.97;5094381;28;20032;-75
2023/12/05 00:04:16;;;;;;;22.23;16.05;;;;;;;1.43;100.00;99865.88;5076353;28;20048;-75
2023/12/05 00:06:41;;;;;;;19.48;15.77;;;;;;;1.43;100.00;99855.44;5094398;28;20035;-74
2023/12/05 00:09:07;;;;;;;19.60;14.95;;;;;;;1.46;100.00;99857.22;5076248;28;20047;-75
2023/12/05 00:11:32;;;;;;;23.73;18.17;;;;;;;1.46;100.00;99857.22;5076220;28;20044;-75
2023/12/05 00:13:57;;;;;;;20.30;15.45;;;;;;;1.49;100.00;99857.19;5076445;28;20032;-75
2023/12/05 00:16:23;;;;;;;20.13;15.30;;;;;;;1.49;100.00;99851.97;5094534;28;20605;-75
2023/12/05 00:18:50;;;;;;;20.35;15.50;;;;;;;1.51;100.00;99860.69;5059851;28;20549;-75
2023/12/05 00:21:16;;;;;;;21.17;15.32;;;;;;;1.49;100.00;99851.97;5094682;28;20323;-75
2023/12/05 00:23:42;;;;;;;24.15;16.60;;;;;;;1.52;100.00;99854.56;5068943;28;20422;-75
2023/12/05 00:26:07;;;;;;;21.52;16.27;;;;;;;1.54;100.00;99844.16;5093990;28;20170;-74
2023/12/05 00:28:33;;;;;;;22.13;16.05;;;;;;;1.54;100.00;99846.75;5079719;28;20058;-74
2023/12/05 00:30:58;;;;;;;20.00;15.10;;;;;;;1.56;100.00;99851.09;5094104;28;20032;-74
2023/12/05 00:33:24;;;;;;;20.48;15.98;;;;;;;1.56;100.00;99837.16;5075944;28;20466;-75
2023/12/05 00:35:49;;;;;;;20.17;15.20;;;;;;;1.56;100.00;99837.16;5093947;28;20489;-75
2023/12/05 00:38:15;;;;;;;19.88;15.40;;;;;;;1.56;100.00;99835.44;5075904;28;20040;-75
2023/12/05 00:40:40;;;;;;;18.73;13.38;;;;;;;1.57;100.00;99836.31;5075830;28;20035;-75
2023/12/05 00:43:06;;;;;;;20.73;15.25;;;;;;;1.61;100.00;99843.28;5075836;28;20077;-75
2023/12/05 00:45:31;;;;;;;21.08;15.43;;;;;;;1.61;100.00;99835.44;5064753;28;20040;-75
2023/12/05 00:47:57;;;;;;;19.88;14.55;;;;;;;1.63;100.00;99838.91;5072169;28;20043;-75
2023/12/05 00:50:22;;;;;;;19.70;14.75;;;;;;;1.63;100.00;99837.19;5097454;28;20038;-75
2023/12/05 00:52:48;;;;;;;20.35;15.80;;;;;;;1.64;100.00;99838.91;5100797;28;20047;-75
2023/12/05 00:55:13;;;;;;;20.88;15.40;;;;;;;1.69;100.00;99844.13;5043819;28;20398;-74
2023/12/05 00:57:39;;;;;;;20.95;15.30;;;;;;;1.66;100.00;99838.91;5075534;28;20071;-75
2023/12/05 01:00:09;;;;;;;23.58;16.75;;;;;;;1.67;100.00;99835.41;5059272;28;20051;-75
2023/12/05 01:02:35;;;;;;;21.88;16.73;;;;;;;1.67;100.00;99846.72;5075371;28;20048;-75
2023/12/05 01:05:00;;;;;;;21.27;16.48;;;;;;;1.71;100.00;99838.03;5092812;28;20090;-75
2023/12/05 01:07:26;;;;;;;23.42;17.60;;;;;;;1.73;100.00;99832.78;5074615;28;20479;-75
2023/12/05 01:09:51;;;;;;;22.80;16.25;;;;;;;1.74;100.00;99831.94;5093484;28;20129;-75
2023/12/05 01:12:17;;;;;;;21.95;15.95;;;;;;;1.74;100.00;99828.47;5077904;28;20044;-75
2023/12/05 01:14:42;;;;;;;20.33;16.83;;;;;;;1.77;100.00;99829.31;5085715;28;20040;-75
2023/12/05 01:17:08;;;;;;;22.33;17.50;;;;;;;1.78;100.00;99830.16;5093113;28;20032;-75
2023/12/05 01:19:35;;;;;;;22.65;16.33;;;;;;;1.79;100.00;99827.56;5093234;28;20039;-75
2023/12/05 01:22:02;;;;;;;21.42;15.65;;;;;;;1.79;100.00;99830.19;5059331;28;20039;-75
2023/12/05 01:24:28;;;;;;;21.45;16.95;;;;;;;1.79;100.00;99830.19;5071211;28;20051;-75
2023/12/05 01:26:54;;;;;;;26.15;17.77;;;;;;;1.78;100.00;99820.63;5072937;28;20040;-75
2023/12/05 01:29:19;;;;;;;22.48;16.77;;;;;;;1.80;100.00;99817.97;5072543;28;20036;-75
2023/12/05 01:31:45;;;;;;;22.70;17.25;;;;;;;1.78;100.00;99818.00;5071381;28;20127;-75
2023/12/05 01:34:10;;;;;;;23.08;17.35;;;;;;;1.81;100.00;99828.44;5071312;28;20032;-75
2023/12/05 01:36:36;;;;;;;26.65;18.60;;;;;;;1.81;100.00;99822.34;5071259;28;20102;-75
2023/12/05 01:39:01;;;;;;;22.55;17.35;;;;;;;1.81;100.00;99825.81;5065941;28;20016;-75
2023/12/05 01:41:27;;;;;;;21.92;17.27;;;;;;;1.84;100.00;99828.41;5070936;28;20082;-75
2023/12/05 01:43:52;;;;;;;21.30;16.77;;;;;;;1.84;100.00;99827.56;5072639;28;20064;-75
2023/12/05 01:46:20;;;;;;;24.30;17.92;;;;;;;1.85;100.00;99826.66;5054251;28;20115;-75
2023/12/05 01:48:46;;;;;;;22.63;17.70;;;;;;;1.86;100.00;99826.69;5070843;28;20043;-75
2023/12/05 01:51:13;;;;;;;25.00;19.02;;;;;;;1.88;100.00;99826.66;5079366;28;20412;-75
2023/12/05 01:53:41;;;;;;;21.67;18.17;;;;;;;1.89;100.00;99828.41;5087855;28;20107;-75
2023/12/05 01:56:09;;;;;;;25.27;18.98;;;;;;;1.89;100.00;99836.25;5081885;28;20438;-75
2023/12/05 01:58:37;;;;;;;23.80;19.20;;;;;;;1.91;100.00;99829.28;5092474;28;20047;-75
2023/12/05 02:01:04;;;;;;;20.92;16.33;;;;;;;1.91;100.00;99829.28;5091216;28;20697;-75
2023/12/05 02:03:31;;;;;;;22.00;17.63;;;;;;;1.91;100.00;99840.59;5092089;28;20044;-75
2023/12/05 02:05:58;;;;;;;23.90;18.35;;;;;;;1.93;100.00;99843.19;5092805;28;20044;-75
2023/12/05 02:08:26;;;;;;;22.98;17.67;;;;;;;1.95;100.00;99841.44;5078083;28;20136;-75
2023/12/05 02:10:52;;;;;;;23.70;18.67;;;;;;;1.94;100.00;99840.56;5091478;28;20417;-75
2023/12/05 02:13:18;;;;;;;24.42;18.10;;;;;;;1.97;100.00;99846.66;5092011;28;20127;-75
2023/12/05 02:15:44;;;;;;;27.02;18.70;;;;;;;1.97;100.00;99839.69;5090803;28;20039;-75
2023/12/05 02:18:20;;;;;;;24.65;19.45;;;;;;;1.99;100.00;99839.69;5072663;28;20363;-75
2023/12/05 02:21:05;;;;;;;26.70;19.48;;;;;;;2.00;100.00;99837.06;5091851;28;20059;-75
2023/12/05 02:23:55;;;;;;;24.02;18.42;;;;;;;2.04;100.00;99837.94;5090904;28;20059;-75
2023/12/05 02:26:46;;;;;;;26.10;19.98;;;;;;;2.03;100.00;99836.19;5073480;28;20086;-76
2023/12/05 02:29:11;;;;;;;24.20;17.35;;;;;;;2.05;100.00;99839.66;5078786;28;20491;-74
2023/12/05 02:31:37;;;;;;;26.30;19.75;;;;;;;2.06;100.00;99844.91;5092059;28;20039;-75
2023/12/05 02:34:03;;;;;;;21.23;16.35;;;;;;;2.05;100.00;99829.22;5073880;28;20390;-74
2023/12/05 02:36:37;;;;;;;25.23;20.00;;;;;;;2.06;100.00;99831.84;5090707;28;20058;-74
2023/12/05 02:39:28;;;;;;;23.60;18.77;;;;;;;2.05;100.00;99827.50;5092002;28;20101;-75
2023/12/05 02:41:56;;;;;;;22.25;16.67;;;;;;;2.08;100.00;99835.31;5075917;28;20035;-74
2023/12/05 02:44:38;;;;;;;23.08;17.58;;;;;;;2.08;100.00;99827.47;5086607;28;20043;-74
2023/12/05 02:47:08;;;;;;;22.05;17.23;;;;;;;2.09;100.00;99829.19;5091753;28;20031;-74
2023/12/05 02:49:33;;;;;;;22.67;18.40;;;;;;;2.09;100.00;99829.19;5088304;28;20466;-74
2023/12/05 02:51:59;;;;;;;24.35;18.85;;;;;;;2.11;100.00;99827.47;5085116;28;20055;-74
2023/12/05 02:54:25;;;;;;;22.27;17.80;;;;;;;2.14;100.00;99831.81;5090548;28;20033;-74
2023/12/05 02:56:50;;;;;;;23.50;17.08;;;;;;;2.13;100.00;99830.94;5071096;28;20376;-74
2023/12/05 02:59:16;;;;;;;23.67;18.77;;;;;;;2.12;100.00;99823.97;5091884;28;20044;-75
2023/12/05 03:01:42;;;;;;;23.60;19.73;;;;;;;2.13;100.00;99817.88;5090375;28;20467;-74
2023/12/05 03:04:07;;;;;;;22.50;17.38;;;;;;;2.13;100.00;99823.09;5090320;28;20161;-74
2023/12/05 03:06:33;;;;;;;23.80;18.48;;;;;;;2.17;100.00;99826.56;5090214;28;20170;-74
2023/12/05 03:09:02;;;;;;;24.55;18.92;;;;;;;2.18;100.00;99823.09;5090158;28;20062;-74
2023/12/05 03:11:27;;;;;;;25.83;18.33;;;;;;;2.17;100.00;99818.72;5090316;28;20047;-74
2023/12/05 03:13:53;;;;;;;24.83;18.80;;;;;;;2.18;100.00;99816.97;5089965;28;20032;-75
2023/12/05 03:16:18;;;;;;;24.20;18.85;;;;;;;2.20;100.00;99817.84;5091204;28;20102;-74
2023/12/05 03:18:44;;;;;;;28.33;19.73;;;;;;;2.20;100.00;99823.97;5091311;28;20048;-74
2023/12/05 03:21:09;;;;;;;24.17;18.60;;;;;;;2.20;100.00;99821.34;5073201;28;20059;-74
2023/12/05 03:23:35;;;;;;;24.73;19.02;;;;;;;2.20;100.00;99820.44;5091082;28;20055;-74
2023/12/05 03:26:00;;;;;;;23.55;18.08;;;;;;;2.21;100.00;99822.22;5089896;28;20127;-75
2023/12/05 03:28:26;;;;;;;22.85;17.92;;;;;;;2.23;100.00;99815.25;5087297;28;20483;-74
2023/12/05 03:30:51;;;;;;;25.25;19.75;;;;;;;2.24;100.00;99816.97;5090672;28;20031;-74
2023/12/05 03:33:16;;;;;;;26.02;19.58;;;;;;;2.25;100.00;99816.97;5095040;28;20079;-74
2023/12/05 03:35:42;;;;;;;23.88;18.77;;;;;;;2.26;100.00;99825.66;5093831;28;20032;-74
2023/12/05 03:38:07;;;;;;;27.35;20.35;;;;;;;2.26;100.00;99826.53;5094992;28;20115;-74
2023/12/05 03:40:33;;;;;;;24.38;19.15;;;;;;;2.27;100.00;99828.25;5093861;28;20498;-74
2023/12/05 03:42:58;;;;;;;25.90;19.77;;;;;;;2.27;100.00;99833.47;5094872;28;20112;-74
2023/12/05 03:45:24;;;;;;;26.10;20.42;;;;;;;2.28;100.00;99824.78;5073193;28;20490;-74
2023/12/05 03:47:49;;;;;;;23.63;18.38;;;;;;;2.27;100.00;99828.25;5090213;28;20055;-74
2023/12/05 03:50:15;;;;;;;24.55;18.48;;;;;;;2.28;100.00;99826.53;5068548;28;20100;-74
2023/12/05 03:52:40;;;;;;;23.08;18.83;;;;;;;2.29;100.00;99828.25;5073828;28;20047;-74
2023/12/05 03:55:06;;;;;;;25.17;19.23;;;;;;;2.30;100.00;99819.53;5067686;28;20034;-74
2023/12/05 03:57:31;;;;;;;25.27;19.73;;;;;;;2.32;100.00;99825.63;5074507;28;20041;-73
2023/12/05 03:59:57;;;;;;;26.92;19.75;;;;;;;2.32;100.00;99826.50;5079196;28;20075;-74
2023/12/05 04:02:22;;;;;;;24.52;19.20;;;;;;;2.33;100.00;99838.69;5094655;28;20040;-74
2023/12/05 04:04:47;;;;;;;24.05;19.17;;;;;;;2.34;100.00;99836.94;5080637;28;20031;-73
2023/12/05 04:07:13;;;;;;;26.00;20.48;;;;;;;2.36;100.00;99832.59;5089557;28;20087;-74
2023/12/05 04:09:38;;;;;;;26.85;21.23;;;;;;;2.37;100.00;99836.91;5091112;28;20081;-74
2023/12/05 04:12:04;;;;;;;25.55;20.20;;;;;;;2.37;100.00;99839.53;5084523;28;20040;-75
2023/12/05 04:14:30;;;;;;;27.08;20.83;;;;;;;2.36;100.00;99843.91;5090064;28;20115;-75
2023/12/05 04:16:55;;;;;;;25.77;20.17;;;;;;;2.39;100.00;99848.25;5094681;28;20032;-74
2023/12/05 04:19:21;;;;;;;26.60;20.00;;;;;;;2.39;100.00;99848.25;5076411;28;20052;-74
2023/12/05 04:21:46;;;;;;;25.98;19.58;;;;;;;2.40;100.00;99846.50;5093059;28;20028;-75
2023/12/05 04:24:12;;;;;;;26.20;18.80;;;;;;;2.40;100.00;99850.00;5093971;28;20104;-75
2023/12/05 04:26:37;;;;;;;28.77;20.73;;;;;;;2.41;100.00;99849.09;5073744;28;20059;-74
2023/12/05 04:29:03;;;;;;;25.98;20.08;;;;;;;2.41;100.00;99858.69;5084818;28;20083;-74
2023/12/05 04:31:28;;;;;;;25.85;19.35;;;;;;;2.42;100.00;99853.44;5088943;28;20373;-75
2023/12/05 04:33:54;;;;;;;27.63;19.65;;;;;;;2.43;100.00;99859.56;5094119;28;20103;-75
2023/12/05 04:36:19;;;;;;;24.77;18.40;;;;;;;2.43;100.00;99860.44;5094065;28;20032;-75
2023/12/05 04:38:45;;;;;;;26.20;20.33;;;;;;;2.41;100.00;99858.69;5092529;28;20451;-74
2023/12/05 04:41:10;;;;;;;24.67;18.08;;;;;;;2.41;100.00;99859.56;5091481;28;20032;-75
2023/12/05 04:43:36;;;;;;;25.15;20.02;;;;;;;2.43;100.00;99863.03;5092442;28;20074;-75
2023/12/05 04:46:02;;;;;;;24.30;19.13;;;;;;;2.45;100.00;99861.28;5093750;28;20052;-75
2023/12/05 04:48:27;;;;;;;23.42;17.80;;;;;;;2.43;100.00;99859.56;5093587;28;20039;-74
2023/12/05 04:50:53;;;;;;;24.45;18.33;;;;;;;2.47;100.00;99866.50;5064028;28;20043;-74
2023/12/05 04:53:18;;;;;;;24.25;19.30;;;;;;;2.47;100.00;99869.97;5085289;28;20036;-74
2023/12/05 04:55:44;;;;;;;26.55;18.73;;;;;;;2.46;100.00;99868.25;5069310;28;20174;-75
2023/12/05 04:58:09;;;;;;;23.98;19.27;;;;;;;2.47;100.00;99874.34;5092429;28;20043;-74
2023/12/05 05:00:36;;;;;;;25.30;19.13;;;;;;;2.48;100.00;99876.94;5093605;28;20040;-75
2023/12/05 05:03:02;;;;;;;26.42;20.25;;;;;;;2.49;100.00;99876.06;5085573;28;20048;-75
2023/12/05 05:05:27;;;;;;;25.33;19.45;;;;;;;2.51;100.00;99881.28;5085819;28;20048;-75
2023/12/05 05:07:53;;;;;;;24.50;20.35;;;;;;;2.51;100.00;99881.28;5088535;28;20032;-75
2023/12/05 05:10:18;;;;;;;25.33;19.45;;;;;;;2.53;100.00;99887.38;5093948;28;20142;-75
2023/12/05 05:12:44;;;;;;;25.08;19.15;;;;;;;2.53;100.00;99883.03;5093364;28;20043;-75
2023/12/05 05:15:09;;;;;;;25.17;18.92;;;;;;;2.54;100.00;99887.38;5093626;28;20035;-74
2023/12/05 05:17:35;;;;;;;23.80;18.85;;;;;;;2.55;100.00;99894.34;5078795;28;20433;-75
2023/12/05 05:20:00;;;;;;;22.92;18.52;;;;;;;2.54;100.00;99892.59;5078850;28;20039;-75
2023/12/05 05:22:26;;;;;;;25.45;18.85;;;;;;;2.54;100.00;99889.97;5073088;28;20124;-74
2023/12/05 05:24:52;;;;;;;25.92;18.58;;;;;;;2.55;100.00;99893.47;5075001;28;20047;-75
2023/12/05 05:27:17;;;;;;;23.27;17.90;;;;;;;2.56;100.00;99896.06;5074596;28;20094;-75
2023/12/05 05:29:43;;;;;;;24.63;18.33;;;;;;;2.56;100.00;99896.06;5092842;28;20147;-75
2023/12/05 05:32:09;;;;;;;23.83;18.80;;;;;;;2.55;100.00;99894.34;5075071;28;20078;-75
2023/12/05 05:34:34;;;;;;;25.63;19.38;;;;;;;2.55;100.00;99894.34;5067751;28;20040;-74
2023/12/05 05:37:00;;;;;;;25.02;19.10;;;;;;;2.58;100.00;99896.94;5092979;28;20059;-75
2023/12/05 05:39:25;;;;;;;25.05;19.75;;;;;;;2.59;100.00;99895.19;5092808;28;20402;-75
2023/12/05 05:41:50;;;;;;;27.40;20.65;;;;;;;2.58;100.00;99896.06;5092796;28;20071;-75
2023/12/05 05:44:16;;;;;;;22.77;17.80;;;;;;;2.58;100.00;99888.25;5095729;28;20043;-75
2023/12/05 05:46:41;;;;;;;26.25;19.63;;;;;;;2.59;100.00;99889.97;5095444;28;20497;-75
2023/12/05 05:49:07;;;;;;;29.20;18.98;;;;;;;2.57;100.00;99889.09;5076952;28;20097;-75
2023/12/05 05:51:33;;;;;;;22.70;17.40;;;;;;;2.61;100.00;99897.81;5097947;28;20051;-75
2023/12/05 05:53:58;;;;;;;25.00;18.42;;;;;;;2.62;100.00;99897.81;5092773;28;20030;-75
2023/12/05 05:56:24;;;;;;;23.80;17.75;;;;;;;2.64;100.00;99898.66;5094253;28;20379;-75
2023/12/05 05:58:50;;;;;;;26.20;19.25;;;;;;;2.66;100.00;99890.81;5074268;28;20028;-74
2023/12/05 06:01:16;;;;;;;25.02;19.90;;;;;;;2.66;100.00;99896.91;5092386;28;20105;-75
2023/12/05 06:03:41;;;;;;;24.25;19.23;;;;;;;2.63;100.00;99899.53;5092299;28;20115;-74
2023/12/05 06:06:08;;;;;;;22.80;17.63;;;;;;;2.65;100.00;99903.00;5111669;28;20531;-74
2023/12/05 06:08:34;;;;;;;22.48;18.02;;;;;;;2.62;100.00;99897.81;5073822;28;20142;-74
2023/12/05 06:11:00;;;;;;;22.00;17.58;;;;;;;2.64;100.00;99909.09;5094570;28;20043;-74
2023/12/05 06:13:25;;;;;;;24.02;18.17;;;;;;;2.63;100.00;99911.75;5094191;28;20080;-74
2023/12/05 06:15:51;;;;;;;24.50;18.63;;;;;;;2.61;100.00;99914.34;5094442;28;20042;-74
2023/12/05 06:18:17;;;;;;;26.15;20.10;;;;;;;2.59;100.00;99909.13;5112392;28;20515;-74
2023/12/05 06:20:46;;;;;;;22.10;17.20;;;;;;;2.59;100.00;99921.31;5112592;28;20043;-74
2023/12/05 06:23:12;;;;;;;23.73;18.05;;;;;;;2.57;100.00;99913.50;5112032;28;20043;-73
2023/12/05 06:25:39;;;;;;;25.00;19.08;;;;;;;2.55;100.00;99919.63;5077125;28;20043;-73
2023/12/05 06:28:05;;;;;;;23.83;18.42;;;;;;;2.54;100.00;99923.94;5058826;28;20031;-73
2023/12/05 06:30:31;;;;;;;25.25;19.48;;;;;;;2.52;100.00;99930.06;5079705;28;20379;-73
2023/12/05 06:32:56;;;;;;;27.27;19.35;;;;;;;2.48;100.00;99924.00;5093541;28;20039;-73
2023/12/05 06:35:22;;;;;;;28.48;20.83;;;;;;;2.48;100.00;99936.19;5086374;28;20368;-73
2023/12/05 06:37:47;;;;;;;29.27;21.35;;;;;;;2.45;100.00;99936.19;5095412;28;20036;-74
2023/12/05 06:40:13;;;;;;;30.38;22.27;;;;;;;2.42;100.00;99939.69;5076807;28;20032;-73
2023/12/05 06:42:40;;;;;;;28.70;21.73;;;;;;;2.40;100.00;99938.84;5073522;28;20035;-73
2023/12/05 06:45:06;;;;;;;30.75;22.85;;;;;;;2.40;100.00;99941.44;5091676;28;20039;-74
2023/12/05 06:47:33;;;;;;;28.48;20.17;;;;;;;2.39;100.00;99939.69;5091933;28;20036;-73
2023/12/05 06:50:01;;;;;;;30.17;21.58;;;;;;;2.38;100.00;99951.03;5095227;28;20039;-74
2023/12/05 06:52:28;;;;;;;29.83;21.42;;;;;;;2.36;100.00;99945.78;5078146;28;20604;-73
2023/12/05 06:54:53;;;;;;;27.92;20.10;;;;;;;2.35;100.00;99938.84;5090850;28;20043;-74
2023/12/05 06:57:19;;;;;;;29.70;20.48;;;;;;;2.35;100.00;99943.22;5076904;28;20470;-73
2023/12/05 06:59:44;;;;;;;30.95;21.80;;;;;;;2.35;100.00;99945.81;5054148;28;20051;-73
2023/12/05 07:02:10;;;;;;;32.65;22.67;;;;;;;2.33;100.00;99943.19;5091315;28;20020;-73
2023/12/05 07:04:35;;;;;;;31.15;22.38;;;;;;;2.32;100.00;99957.13;5101100;28;20046;-73
2023/12/05 07:07:01;;;;;;;32.42;22.40;;;;;;;2.30;100.00;99963.22;5097775;28;20045;-73
2023/12/05 07:09:27;;;;;;;29.27;21.23;;;;;;;2.28;100.00;99965.00;5080828;28;20505;-73
2023/12/05 07:11:52;;;;;;;29.08;20.25;;;;;;;2.27;100.00;99973.69;5097281;28;20098;-73
2023/12/05 07:14:17;;;;;;;31.02;21.15;;;;;;;2.25;100.00;99970.19;5097689;28;20032;-73
2023/12/05 07:16:44;;;;;;;30.88;22.77;;;;;;;2.25;100.00;99975.44;5097495;28;20469;-73
2023/12/05 07:19:09;;;;;;;31.10;20.42;;;;;;;2.25;100.00;99980.66;5097496;28;20035;-73
2023/12/05 07:21:34;;;;;;;33.42;20.60;;;;;;;2.24;100.00;99982.41;5116013;28;20350;-73
2023/12/05 07:24:00;;;;;;;31.30;21.27;;;;;;;2.24;100.00;99989.38;5113999;28;20130;-73
2023/12/05 07:26:25;;;;;;;30.58;20.98;;;;;;;2.24;100.00;99992.84;5103563;28;20048;-73
2023/12/05 07:28:51;;;;;;;28.52;20.67;;;;;;;2.24;100.00;100010.28;5103354;28;20050;-73
2023/12/05 07:31:17;;;;;;;32.25;20.02;;;;;;;2.23;100.00;100008.53;5077460;28;20089;-73
2023/12/05 07:33:42;;;;;;;32.50;21.52;;;;;;;2.21;100.00;100005.06;5095236;28;20035;-73
2023/12/05 07:36:09;;;;;;;30.20;19.60;;;;;;;2.20;100.00;100005.91;5076783;28;20036;-73
2023/12/05 07:38:34;;;;;;;35.60;21.50;;;;;;;2.20;100.00;100009.41;5069280;28;20130;-73
2023/12/05 07:40:59;;;;;;;30.35;20.35;;;;;;;2.19;100.00;100018.09;5081301;28;20123;-73
2023/12/05 07:43:25;;;;;;;32.97;21.13;;;;;;;2.18;100.00;100016.38;5094193;28;20020;-74
2023/12/05 07:45:50;;;;;;;29.30;20.02;;;;;;;2.18;100.00;100023.31;5094826;28;20044;-73
2023/12/05 07:48:16;;;;;;;32.53;22.48;;;;;;;2.17;100.00;100026.81;5059155;28;20048;-73
2023/12/05 07:50:41;;;;;;;34.15;22.40;;;;;;;2.16;100.00;100028.56;5097313;28;20039;-73
2023/12/05 07:53:07;;;;;;;30.30;20.70;;;;;;;2.13;100.00;100037.28;5100688;28;20048;-74
2023/12/05 07:55:32;;;;;;;31.00;20.90;;;;;;;2.12;100.00;100045.09;5075432;28;20039;-73
2023/12/05 07:58:00;;;;;;;32.40;20.23;;;;;;;2.13;100.00;100054.69;5076578;28;20057;-73
2023/12/05 08:00:34;;;;;;;27.08;19.58;;;;;;;2.12;100.00;100053.81;5080214;28;20399;-74
2023/12/05 08:03:00;;;;;;;32.72;21.65;;;;;;;2.11;100.00;100052.06;5107401;28;20056;-74
2023/12/05 08:05:25;;;;;;;33.22;21.48;;;;;;;2.08;100.00;100051.22;5083667;28;20435;-73
2023/12/05 08:07:54;;;;;;;31.65;20.17;;;;;;;2.10;100.00;100063.41;5079276;28;20028;-73
2023/12/05 08:10:19;;;;;;;37.42;20.92;;;;;;;2.11;100.00;100059.91;5094241;28;20047;-74
2023/12/05 08:12:44;;;;;;;32.58;21.38;;;;;;;2.09;100.00;100066.88;5075649;28;20045;-74
2023/12/05 08:15:10;;;;;;;33.30;20.77;;;;;;;2.09;100.00;100072.09;5075897;28;20134;-74
2023/12/05 08:17:35;;;;;;;33.65;21.17;;;;;;;2.07;100.00;100068.59;5096840;28;20028;-73
2023/12/05 08:20:01;;;;;;;32.67;20.08;;;;;;;2.08;100.00;100069.50;5078900;28;20050;-74
2023/12/05 08:22:26;;;;;;;35.22;23.25;;;;;;;2.08;100.00;100079.94;5082285;28;20035;-74
2023/12/05 08:24:52;;;;;;;34.42;22.00;;;;;;;2.07;100.00;100078.19;5075882;28;20560;-74
2023/12/05 08:27:18;;;;;;;34.00;22.55;;;;;;;2.05;100.00;100082.53;5093738;28;20043;-74
2023/12/05 08:29:43;;;;;;;31.65;21.90;;;;;;;2.04;100.00;100086.88;5093913;28;20325;-73
2023/12/05 08:32:10;;;;;;;30.45;20.38;;;;;;;2.04;100.00;100086.88;5070689;28;20388;-74
2023/12/05 08:34:35;;;;;;;33.60;21.40;;;;;;;2.05;100.00;100090.38;5095509;28;20344;-73
2023/12/05 08:37:00;;;;;;;33.80;22.60;;;;;;;2.03;100.00;100086.88;5044978;28;20032;-74
2023/12/05 08:39:26;;;;;;;31.73;21.48;;;;;;;2.01;100.00;100091.25;5082390;28;20048;-73
2023/12/05 08:41:52;;;;;;;31.63;22.45;;;;;;;2.00;100.00;100099.94;5075329;28;20059;-73
2023/12/05 08:44:19;;;;;;;35.60;21.02;;;;;;;2.00;100.00;100108.63;5093648;28;20024;-73
2023/12/05 08:46:46;;;;;;;32.58;20.50;;;;;;;1.99;100.00;100106.03;5097088;28;20032;-73
2023/12/05 08:49:12;;;;;;;30.33;20.15;;;;;;;1.97;100.00;100106.03;5088181;28;20149;-73
2023/12/05 08:51:38;;;;;;;30.40;20.05;;;;;;;1.98;100.00;100106.91;5094157;28;20055;-73
2023/12/05 08:54:03;;;;;;;30.75;21.00;;;;;;;1.97;100.00;100105.16;5099225;28;20035;-73
2023/12/05 08:56:29;;;;;;;32.05;19.63;;;;;;;1.99;100.00;100111.28;5074787;28;20055;-73
2023/12/05 08:58:54;;;;;;;34.15;21.60;;;;;;;1.98;100.00;100109.50;5093520;28;20374;-74
2023/12/05 09:01:23;;;;;;;31.48;19.90;;;;;;;2.00;100.00;100108.63;5093251;28;20061;-73
2023/12/05 09:03:49;;;;;;;29.88;20.00;;;;;;;2.03;100.00;100105.16;5059476;28;20047;-73
2023/12/05 09:06:14;;;;;;;34.95;21.13;;;;;;;2.03;100.00;100106.06;5099153;28;20092;-73
2023/12/05 09:08:40;;;;;;;33.17;21.85;;;;;;;2.08;100.00;100116.50;5110133;28;20129;-73
2023/12/05 09:11:06;;;;;;;29.02;19.92;;;;;;;2.09;100.00;100113.88;5095058;28;20058;-73
2023/12/05 09:13:31;;;;;;;37.65;21.23;;;;;;;2.12;100.00;100113.88;5095548;28;20243;-73
2023/12/05 09:15:57;;;;;;;31.02;20.85;;;;;;;2.15;100.00;100121.75;5095526;28;20061;-73
2023/12/05 09:18:22;;;;;;;32.60;22.30;;;;;;;2.19;100.00;100116.50;5095243;28;20122;-73
2023/12/05 09:20:48;;;;;;;33.10;21.45;;;;;;;2.21;100.00;100126.09;5078434;28;20032;-72
2023/12/05 09:23:13;;;;;;;32.17;21.20;;;;;;;2.24;100.00;100138.28;5113371;28;20035;-72
2023/12/05 09:25:39;;;;;;;37.20;21.15;;;;;;;2.24;100.00;100138.28;5094932;28;20515;-72
2023/12/05 09:28:04;;;;;;;39.60;20.83;;;;;;;2.21;100.00;100139.16;5111156;28;20419;-72
2023/12/05 09:30:30;;;;;;;30.38;20.42;;;;;;;2.22;100.00;100146.09;5102876;28;20031;-72
2023/12/05 09:32:55;;;;;;;35.65;22.15;;;;;;;2.23;100.00;100147.88;5094681;28;20043;-72
2023/12/05 09:35:21;;;;;;;35.22;21.20;;;;;;;2.26;100.00;100147.84;5113450;28;20055;-72
2023/12/05 09:37:46;;;;;;;33.95;20.58;;;;;;;2.29;100.00;100157.44;5113251;28;20482;-72
2023/12/05 09:40:12;;;;;;;33.97;20.45;;;;;;;2.30;100.00;100169.63;5094917;28;20042;-72
2023/12/05 09:42:42;;;;;;;34.25;21.13;;;;;;;2.28;100.00;100159.19;5113197;28;20401;-72
2023/12/05 09:45:13;;;;;;;33.38;20.95;;;;;;;2.30;100.00;100164.41;5113111;28;20035;-72
2023/12/05 09:47:41;;;;;;;36.35;20.40;;;;;;;2.31;100.00;100168.78;5113276;28;20063;-72
2023/12/05 09:50:08;;;;;;;33.05;20.55;;;;;;;2.32;100.00;100167.88;5107482;28;20031;-72
2023/12/05 09:52:34;;;;;;;32.50;20.25;;;;;;;2.33;100.00;100170.50;5079477;28;20483;-72
2023/12/05 09:55:01;;;;;;;34.65;21.92;;;;;;;2.33;100.00;100175.75;5108376;28;20486;-72
2023/12/05 09:57:28;;;;;;;34.40;22.67;;;;;;;2.35;100.00;100173.13;5107424;28;20050;-72
2023/12/05 09:59:53;;;;;;;40.80;21.48;;;;;;;2.34;100.00;100174.84;5112950;28;20027;-72
2023/12/05 10:02:20;;;;;;;35.40;21.08;;;;;;;2.38;100.00;100182.72;5075814;28;20046;-72
2023/12/05 10:04:49;;;;;;;33.70;22.13;;;;;;;2.37;100.00;100187.06;5100578;28;20046;-72
2023/12/05 10:07:16;;;;;;;37.80;20.13;;;;;;;2.36;100.00;100186.19;5112599;28;20498;-72
2023/12/05 10:09:42;;;;;;;31.30;19.95;;;;;;;2.39;100.00;100192.28;5105717;28;20063;-72
2023/12/05 10:12:09;;;;;;;38.45;21.75;;;;;;;2.40;100.00;100194.03;5112660;28;20046;-72
2023/12/05 10:14:35;;;;;;;43.58;21.88;;;;;;;2.40;100.00;100194.03;5094386;28;20031;-73
2023/12/05 10:17:03;;;;;;;39.65;23.27;;;;;;;2.38;100.00;100201.88;5112319;28;20070;-73
2023/12/05 10:19:32;;;;;;;38.00;22.73;;;;;;;2.40;100.00;100210.59;5094237;28;20399;-73
2023/12/05 10:21:59;;;;;;;33.97;20.58;;;;;;;2.36;100.00;100204.47;5112386;28;20072;-73
2023/12/05 10:24:38;;;;;;;35.47;20.80;;;;;;;2.41;100.00;100208.84;5112158;28;20096;-73
2023/12/05 10:27:03;;;;;;;31.50;20.33;;;;;;;2.41;100.00;100208.84;5112222;28;20047;-73
2023/12/05 10:29:42;;;;;;;33.38;20.85;;;;;;;2.41;100.00;100214.94;5064871;28;20424;-73
2023/12/05 10:32:10;;;;;;;33.15;20.25;;;;;;;2.42;100.00;100207.97;5112081;28;20051;-73
2023/12/05 10:34:56;;;;;;;31.80;20.67;;;;;;;2.43;100.00;100218.44;5076976;28;20027;-73
2023/12/05 10:37:27;;;;;;;32.90;20.65;;;;;;;2.44;100.00;100217.56;5092856;28;20075;-73
2023/12/05 10:39:58;;;;;;;31.65;20.45;;;;;;;2.44;100.00;100220.16;5093406;28;20031;-73
2023/12/05 10:42:28;;;;;;;30.58;20.40;;;;;;;2.48;100.00;100221.06;5111952;28;20047;-72
2023/12/05 10:44:55;;;;;;;29.25;18.10;;;;;;;2.50;100.00;100224.53;5111966;28;20043;-73
2023/12/05 10:47:22;;;;;;;26.05;18.33;;;;;;;2.51;100.00;100229.75;5111849;28;20183;-72
2023/12/05 10:49:48;;;;;;;26.35;17.60;;;;;;;2.50;100.00;100228.03;5075640;28;20455;-73
2023/12/05 10:52:15;;;;;;;30.60;18.42;;;;;;;2.52;100.00;100235.84;5063427;28;20036;-72
2023/12/05 10:54:41;;;;;;;32.05;18.25;;;;;;;2.51;100.00;100237.59;5104254;28;20115;-72
2023/12/05 10:57:09;;;;;;;25.80;15.93;;;;;;;2.53;100.00;100237.59;5105519;28;20039;-73
2023/12/05 10:59:42;;;;;;;31.90;18.50;;;;;;;2.52;100.00;100239.34;5111777;28;20084;-72
2023/12/05 11:02:10;;;;;;;30.20;19.75;;;;;;;2.52;100.00;100241.97;5093093;28;20127;-73
2023/12/05 11:04:37;;;;;;;31.05;19.50;;;;;;;2.51;100.00;100245.44;5079968;28;20032;-72
2023/12/05 11:07:03;;;;;;;30.58;19.13;;;;;;;2.49;100.00;100247.16;5093227;28;20438;-72
2023/12/05 11:09:29;;;;;;;30.63;19.65;;;;;;;2.49;100.00;100248.91;5085961;28;20122;-73
2023/12/05 11:11:56;;;;;;;27.42;17.50;;;;;;;2.47;100.00;100248.03;5093550;28;20065;-72